Terminal Aerodrome Forecast
Issued by NWS

Home | Current Version | Previous Version | Text Only | Print | Product List | Glossary On
Versions: 1 2 3 4 5 6 7 8 9 10 11 12 13 14 15 16 17 18 19 20
821
FTUS43 KPAH 192320
TAFCGI
TAF
KCGI 192320Z 2000/2024 20010G19KT P6SM SCT035 BKN100
      TEMPO 2000/2004 BKN035
     FM200500 18012G20KT P6SM VCSH SCT025 BKN060
     FM201000 18015G25KT P6SM -SHRA SCT015 OVC025
     FM201300 19017G28KT P6SM VCSH OVC015
     FM201800 19018G29KT P6SM VCSH OVC020=

USA.gov is the U.S. government's official web portal to all federal, state and local government web resources and services.